createdAt,value
2024-01-28T00:02:31.189Z,4.00
2024-01-28T00:05:33.488Z,4.20
2024-01-28T00:08:35.895Z,3.97
2024-01-28T00:11:38.058Z,4.13
2024-01-28T00:14:39.920Z,4.19
2024-01-28T00:17:41.957Z,4.19
2024-01-28T00:20:43.696Z,3.90
2024-01-28T00:23:45.486Z,4.02
2024-01-28T00:26:47.495Z,4.04
2024-01-28T00:29:49.305Z,4.13
2024-01-28T00:32:51.154Z,4.29
2024-01-28T00:35:52.886Z,4.34
2024-01-28T00:38:54.984Z,4.07
2024-01-28T00:41:56.957Z,4.21
2024-01-28T00:44:58.788Z,4.08
2024-01-28T00:48:00.786Z,4.27
2024-01-28T00:51:02.610Z,4.13
2024-01-28T00:54:05.584Z,4.01
2024-01-28T00:57:08.179Z,4.04
2024-01-28T01:00:11.310Z,4.26
2024-01-28T01:03:13.254Z,4.02
2024-01-28T01:06:15.171Z,3.86
2024-01-28T01:09:17.571Z,4.07
2024-01-28T01:12:19.742Z,4.04
2024-01-28T01:15:21.586Z,3.97
2024-01-28T01:18:25.303Z,3.98
2024-01-28T01:21:27.269Z,3.95
2024-01-28T01:24:29.298Z,4.09
2024-01-28T01:27:31.157Z,3.91
2024-01-28T01:30:33.102Z,3.89
2024-01-28T01:33:35.062Z,3.85
2024-01-28T01:36:36.951Z,3.97
2024-01-28T01:39:38.757Z,4.16
2024-01-28T01:42:40.673Z,4.06
2024-01-28T01:45:44.039Z,4.10
2024-01-28T01:48:47.425Z,4.18
2024-01-28T01:51:50.274Z,4.17
2024-01-28T01:54:54.936Z,4.19
2024-01-28T01:57:58.146Z,4.29
2024-01-28T02:01:01.911Z,4.15
2024-01-28T02:04:05.158Z,4.46
2024-01-28T02:07:08.163Z,4.00
2024-01-28T02:10:11.081Z,4.10
2024-01-28T02:13:13.446Z,4.30
2024-01-28T02:16:15.306Z,4.16
2024-01-28T02:19:20.947Z,4.20
2024-01-28T02:22:22.825Z,4.19
2024-01-28T02:25:25.245Z,4.19
2024-01-28T02:28:27.037Z,4.03
2024-01-28T02:31:28.853Z,4.09
2024-01-28T02:34:30.754Z,4.24
2024-01-28T02:37:32.562Z,3.92
2024-01-28T02:40:34.377Z,3.94
2024-01-28T02:43:36.167Z,3.99
2024-01-28T02:46:38.004Z,4.40
2024-01-28T02:49:41.373Z,3.99
2024-01-28T02:52:43.232Z,4.22
2024-01-28T02:55:45.052Z,4.09
2024-01-28T02:58:46.859Z,4.06
2024-01-28T03:01:49.562Z,4.23
2024-01-28T03:04:51.609Z,4.20
2024-01-28T03:07:53.390Z,4.13
2024-01-28T03:10:55.154Z,4.35
2024-01-28T03:13:57.302Z,4.18
2024-01-28T03:16:59.154Z,4.42
2024-01-28T03:20:00.957Z,4.20
2024-01-28T03:23:02.788Z,4.35
2024-01-28T03:26:04.572Z,4.32
2024-01-28T03:29:06.404Z,4.19
2024-01-28T03:32:08.191Z,4.34
2024-01-28T03:35:11.345Z,4.36
2024-01-28T03:38:13.260Z,4.30
2024-01-28T03:41:15.861Z,4.25
2024-01-28T03:44:23.461Z,4.33
2024-01-28T03:47:25.370Z,4.10
2024-01-28T03:50:27.363Z,4.11
2024-01-28T03:53:29.228Z,4.19
2024-01-28T03:56:31.027Z,3.89
2024-01-28T03:59:32.811Z,4.09
2024-01-28T04:02:34.694Z,4.30
2024-01-28T04:05:36.740Z,4.36
2024-01-28T04:08:38.537Z,4.20
2024-01-28T04:11:40.592Z,4.18
2024-01-28T04:14:42.406Z,4.28
2024-01-28T04:17:44.999Z,4.08
2024-01-28T04:20:46.876Z,4.19
2024-01-28T04:23:48.661Z,4.25
2024-01-28T04:26:50.485Z,4.34
2024-01-28T04:29:52.289Z,4.46
2024-01-28T04:32:54.127Z,4.70
2024-01-28T04:35:56.086Z,4.58
2024-01-28T04:38:58.189Z,4.43
2024-01-28T04:41:59.974Z,4.53
2024-01-28T04:45:01.905Z,4.35
2024-01-28T04:48:03.988Z,4.43
2024-01-28T04:51:06.417Z,4.46
2024-01-28T04:54:09.308Z,4.61
2024-01-28T04:57:11.231Z,4.90
2024-01-28T05:00:13.756Z,4.96
2024-01-28T05:03:15.955Z,5.08
2024-01-28T05:06:17.871Z,4.89
2024-01-28T05:09:20.382Z,5.45
2024-01-28T05:12:22.578Z,5.56
2024-01-28T05:15:24.431Z,5.20
2024-01-28T05:18:27.401Z,4.87
2024-01-28T05:21:29.705Z,4.55
2024-01-28T05:24:32.588Z,4.90
2024-01-28T05:27:35.510Z,4.72
2024-01-28T05:30:37.474Z,4.72
2024-01-28T05:33:40.337Z,4.75
2024-01-28T05:36:43.053Z,4.78
2024-01-28T05:39:45.498Z,5.02
2024-01-28T05:42:47.472Z,4.91
2024-01-28T05:45:49.420Z,5.14
2024-01-28T05:48:51.375Z,5.04
2024-01-28T05:51:53.237Z,5.08
2024-01-28T05:54:55.089Z,5.17
2024-01-28T05:57:56.907Z,5.38
2024-01-28T06:01:03.438Z,5.20
2024-01-28T06:04:06.411Z,5.32
2024-01-28T06:07:08.292Z,5.33
2024-01-28T06:10:10.622Z,5.22
2024-01-28T06:13:12.549Z,5.18
2024-01-28T06:16:14.478Z,5.29
2024-01-28T06:19:16.636Z,5.26
2024-01-28T06:22:18.477Z,5.25
2024-01-28T06:25:20.658Z,5.17
2024-01-28T06:28:22.548Z,5.14
2024-01-28T06:31:24.608Z,5.19
2024-01-28T06:34:26.509Z,5.25
2024-01-28T06:37:28.496Z,5.30
2024-01-28T06:40:30.602Z,5.50
2024-01-28T06:43:32.689Z,5.52
2024-01-28T06:46:34.496Z,5.58
2024-01-28T06:49:36.370Z,5.85
2024-01-28T06:52:38.355Z,5.85
2024-01-28T06:55:40.144Z,5.72
2024-01-28T06:58:43.607Z,5.61
2024-01-28T07:01:46.373Z,6.17
2024-01-28T07:04:48.221Z,5.74
2024-01-28T07:07:50.201Z,5.83
2024-01-28T07:10:52.045Z,6.63
2024-01-28T07:13:53.884Z,8.76
2024-01-28T07:16:55.768Z,28.72
2024-01-28T07:19:57.784Z,30.30
2024-01-28T07:22:59.789Z,17.61
2024-01-28T07:26:01.555Z,11.77
2024-01-28T07:29:04.829Z,8.69
2024-01-28T07:32:06.775Z,8.30
2024-01-28T07:35:08.805Z,7.22
2024-01-28T07:38:10.732Z,7.02
2024-01-28T07:41:15.692Z,6.85
2024-01-28T07:44:17.596Z,6.61
2024-01-28T07:47:19.338Z,6.90
2024-01-28T07:50:22.293Z,6.74
2024-01-28T07:53:24.128Z,7.20
2024-01-28T07:56:25.996Z,6.86
2024-01-28T07:59:27.785Z,6.84
2024-01-28T08:02:29.585Z,6.97
2024-01-28T08:05:31.470Z,6.98
2024-01-28T08:08:34.416Z,6.59
2024-01-28T08:11:36.216Z,6.39
2024-01-28T08:14:37.988Z,6.45
2024-01-28T08:17:39.721Z,6.49
2024-01-28T08:20:41.549Z,6.58
2024-01-28T08:23:43.314Z,6.16
2024-01-28T08:26:45.269Z,5.90
2024-01-28T08:29:50.206Z,6.26
2024-01-28T08:32:53.363Z,6.29
2024-01-28T08:35:55.272Z,6.31
2024-01-28T08:38:57.309Z,6.35
2024-01-28T08:42:00.649Z,5.86
2024-01-28T08:45:02.515Z,5.45
2024-01-28T08:48:05.187Z,5.44
2024-01-28T08:51:07.706Z,5.75
2024-01-28T08:54:09.917Z,6.45
2024-01-28T08:57:12.204Z,5.84
2024-01-28T09:00:15.376Z,5.81
2024-01-28T09:03:17.324Z,5.27
2024-01-28T09:06:20.204Z,5.09
2024-01-28T09:09:23.009Z,4.73
2024-01-28T09:12:25.717Z,4.83
2024-01-28T09:15:27.754Z,3.91
2024-01-28T09:18:29.616Z,4.10
2024-01-28T09:21:32.211Z,3.66
2024-01-28T09:24:34.065Z,3.35
2024-01-28T09:27:35.919Z,3.06
2024-01-28T09:30:38.025Z,2.96
2024-01-28T09:33:39.913Z,3.09
2024-01-28T09:36:41.790Z,3.01
2024-01-28T09:39:43.705Z,3.00
2024-01-28T09:43:09.284Z,2.79
2024-01-28T09:46:11.056Z,3.15
2024-01-28T09:49:14.728Z,2.85
2024-01-28T09:52:18.409Z,2.73
2024-01-28T09:55:20.156Z,2.68
2024-01-28T09:58:23.174Z,2.76
2024-01-28T10:01:27.872Z,2.61
2024-01-28T10:04:31.047Z,2.63
2024-01-28T10:07:46.572Z,2.98
2024-01-28T10:10:48.446Z,2.97
2024-01-28T10:13:50.344Z,2.92
2024-01-28T10:16:52.097Z,3.12
2024-01-28T10:19:54.034Z,3.23
2024-01-28T10:22:55.943Z,3.12
2024-01-28T10:25:59.464Z,3.17
2024-01-28T10:29:01.274Z,3.17
2024-01-28T10:32:03.465Z,3.21
2024-01-28T10:35:13.598Z,3.12
2024-01-28T10:38:23.678Z,3.33
2024-01-28T10:41:25.901Z,3.52
2024-01-28T10:44:28.217Z,3.19
2024-01-28T10:47:32.985Z,3.02
2024-01-28T10:50:35.678Z,3.10
2024-01-28T10:53:39.438Z,2.83
2024-01-28T10:56:44.257Z,3.00
2024-01-28T10:59:46.224Z,2.71
2024-01-28T11:02:50.908Z,2.66
2024-01-28T11:05:53.182Z,2.69
2024-01-28T11:08:58.318Z,2.60
2024-01-28T11:12:00.370Z,2.81
2024-01-28T11:15:02.474Z,2.77
2024-01-28T11:18:08.112Z,2.41
2024-01-28T11:21:13.745Z,2.41
2024-01-28T11:24:15.775Z,2.33
2024-01-28T11:27:17.600Z,2.56
2024-01-28T11:30:23.905Z,2.82
2024-01-28T11:33:26.207Z,3.07
2024-01-28T11:36:30.044Z,3.18
2024-01-28T11:39:35.017Z,2.99
2024-01-28T11:42:36.999Z,2.90
2024-01-28T11:45:39.628Z,2.94
2024-01-28T11:48:43.268Z,3.07
2024-01-28T11:51:45.181Z,3.23
2024-01-28T11:54:48.804Z,3.00
2024-01-28T11:57:50.777Z,3.20
2024-01-28T12:00:53.144Z,3.13
2024-01-28T12:03:56.324Z,3.13
2024-01-28T12:06:59.132Z,3.30
2024-01-28T12:10:01.627Z,3.12
2024-01-28T12:13:06.643Z,3.29
2024-01-28T12:16:09.309Z,3.19
2024-01-28T12:19:15.268Z,3.34
2024-01-28T12:22:17.277Z,3.23
2024-01-28T12:25:23.800Z,3.44
2024-01-28T12:28:26.574Z,3.54
2024-01-28T12:31:29.676Z,3.45
2024-01-28T12:34:31.610Z,3.60
2024-01-28T12:37:33.570Z,3.86
2024-01-28T12:40:35.342Z,3.73
2024-01-28T12:43:41.671Z,3.74
2024-01-28T12:46:43.427Z,3.70
2024-01-28T12:49:45.324Z,3.62
2024-01-28T12:52:47.334Z,3.81
2024-01-28T12:55:49.237Z,3.94
2024-01-28T12:58:51.130Z,3.89
2024-01-28T13:01:53.291Z,3.84
2024-01-28T13:04:55.851Z,3.61
2024-01-28T13:07:57.810Z,3.82
2024-01-28T13:11:02.405Z,3.72
2024-01-28T13:14:04.735Z,3.75
2024-01-28T13:17:06.581Z,3.76
2024-01-28T13:20:10.441Z,3.65
2024-01-28T13:23:12.387Z,3.84
2024-01-28T13:26:14.502Z,3.93
2024-01-28T13:29:16.340Z,3.86
2024-01-28T13:32:21.478Z,4.04
2024-01-28T13:35:23.310Z,3.65
2024-01-28T13:38:25.457Z,3.88
2024-01-28T13:41:27.183Z,3.80
2024-01-28T13:44:29.004Z,4.14
2024-01-28T13:47:30.862Z,3.95
2024-01-28T13:50:32.743Z,3.77
2024-01-28T13:53:36.924Z,3.69
2024-01-28T13:56:39.557Z,3.98
2024-01-28T13:59:41.392Z,3.53
2024-01-28T14:02:44.975Z,3.85
2024-01-28T14:05:46.949Z,3.82
2024-01-28T14:08:50.558Z,4.02
2024-01-28T14:11:52.529Z,3.80
2024-01-28T14:14:54.330Z,3.95
2024-01-28T14:17:56.162Z,3.90
2024-01-28T14:20:58.063Z,3.82
2024-01-28T14:23:59.944Z,3.79
2024-01-28T14:27:01.774Z,3.72
2024-01-28T14:30:04.102Z,3.96
2024-01-28T14:33:06.031Z,3.99
2024-01-28T14:36:08.409Z,3.83
2024-01-28T14:39:11.152Z,4.22
2024-01-28T14:42:13.770Z,3.98
2024-01-28T14:45:16.078Z,3.92
2024-01-28T14:48:21.898Z,4.37
2024-01-28T14:51:25.100Z,4.52
2024-01-28T14:54:26.889Z,4.21
2024-01-28T14:57:28.751Z,4.25
2024-01-28T15:00:30.556Z,3.85
2024-01-28T15:03:32.527Z,3.77
2024-01-28T15:06:34.535Z,3.71
2024-01-28T15:09:36.723Z,4.14
2024-01-28T15:12:38.544Z,4.28
2024-01-28T15:15:40.424Z,4.37
2024-01-28T15:18:42.715Z,4.70
2024-01-28T15:21:44.612Z,5.53
2024-01-28T15:24:46.568Z,5.59
2024-01-28T15:27:48.605Z,7.04
2024-01-28T15:30:50.421Z,8.98
2024-01-28T15:33:52.344Z,12.18
2024-01-28T15:36:55.057Z,19.75
2024-01-28T15:39:57.547Z,23.48
2024-01-28T15:42:59.463Z,24.84
2024-01-28T15:46:04.634Z,14.85
2024-01-28T15:49:07.290Z,10.69
2024-01-28T15:52:09.112Z,8.82
2024-01-28T15:55:17.020Z,7.94
2024-01-28T15:58:24.337Z,7.43
2024-01-28T16:01:29.104Z,8.22
2024-01-28T16:04:31.690Z,9.49
2024-01-28T16:07:33.667Z,10.47
2024-01-28T16:10:35.546Z,11.56
2024-01-28T16:13:37.449Z,12.03
2024-01-28T16:16:39.388Z,11.60
2024-01-28T16:19:41.340Z,11.32
2024-01-28T16:22:43.266Z,11.49
2024-01-28T16:25:45.226Z,11.40
2024-01-28T16:28:48.511Z,11.05
2024-01-28T16:31:50.380Z,11.93
2024-01-28T16:34:53.063Z,12.18
2024-01-28T16:37:54.941Z,12.34
2024-01-28T16:40:56.798Z,12.91
2024-01-28T16:43:58.641Z,14.07
2024-01-28T16:47:01.070Z,12.74
2024-01-28T16:50:04.640Z,12.05
2024-01-28T16:53:06.747Z,11.99
2024-01-28T16:56:08.667Z,12.64
2024-01-28T16:59:10.470Z,11.04
2024-01-28T17:02:12.292Z,11.65
2024-01-28T17:05:14.243Z,13.20
2024-01-28T17:08:16.046Z,12.91
2024-01-28T17:11:17.955Z,11.00
2024-01-28T17:14:23.738Z,10.95
2024-01-28T17:17:25.859Z,11.13
2024-01-28T17:20:27.983Z,10.93
2024-01-28T17:23:29.803Z,10.94
2024-01-28T17:26:31.792Z,11.26
2024-01-28T17:29:35.068Z,11.42
2024-01-28T17:32:36.953Z,10.89
2024-01-28T17:35:39.447Z,11.90
2024-01-28T17:38:41.636Z,12.27
2024-01-28T17:41:43.605Z,11.96
2024-01-28T17:44:45.442Z,16.05
2024-01-28T17:47:48.325Z,16.11
2024-01-28T17:50:50.512Z,14.95
2024-01-28T17:53:52.938Z,13.16
2024-01-28T17:56:54.827Z,11.41
2024-01-28T17:59:56.931Z,11.01
2024-01-28T18:02:59.277Z,12.07
2024-01-28T18:06:01.270Z,13.09
2024-01-28T18:09:07.916Z,13.81
2024-01-28T18:12:09.904Z,13.96
2024-01-28T18:15:11.990Z,12.43
2024-01-28T18:18:14.482Z,14.70
2024-01-28T18:21:16.631Z,17.36
2024-01-28T18:24:18.593Z,17.61
2024-01-28T18:27:20.509Z,17.76
2024-01-28T18:30:22.733Z,16.30
2024-01-28T18:33:25.002Z,16.96
2024-01-28T18:36:28.311Z,17.05
2024-01-28T18:39:30.230Z,18.02
2024-01-28T18:42:32.020Z,18.61
2024-01-28T18:45:33.909Z,21.19
2024-01-28T18:48:36.154Z,22.53
2024-01-28T18:51:38.066Z,25.15
2024-01-28T18:54:40.084Z,26.93
2024-01-28T18:57:42.424Z,32.00
2024-01-28T19:00:46.946Z,31.10
2024-01-28T19:03:49.145Z,32.14
2024-01-28T19:06:51.055Z,28.51
2024-01-28T19:09:52.948Z,24.92
2024-01-28T19:15:56.784Z,30.74
2024-01-28T19:18:58.794Z,30.01
2024-01-28T19:22:00.780Z,29.55
2024-01-28T19:25:03.254Z,30.53
2024-01-28T19:28:05.507Z,30.93
2024-01-28T19:31:07.873Z,32.35
2024-01-28T19:34:14.010Z,31.55
2024-01-28T19:37:18.778Z,32.43
2024-01-28T19:40:21.144Z,32.06
2024-01-28T19:43:23.035Z,30.26
2024-01-28T19:46:24.852Z,28.51
2024-01-28T19:49:26.867Z,29.73
2024-01-28T19:52:28.659Z,30.77
2024-01-28T19:55:30.499Z,32.20
2024-01-28T19:58:34.857Z,31.11
2024-01-28T20:01:36.785Z,31.39
2024-01-28T20:04:38.944Z,31.27
2024-01-28T20:07:41.025Z,29.84
2024-01-28T20:10:42.831Z,30.66
2024-01-28T20:13:45.360Z,30.94
2024-01-28T20:16:47.238Z,31.13
2024-01-28T20:19:49.232Z,30.55
2024-01-28T20:22:51.927Z,30.24
2024-01-28T20:25:55.679Z,30.50
2024-01-28T20:28:57.943Z,30.04
2024-01-28T20:31:59.929Z,30.73
2024-01-28T20:35:02.669Z,28.57
2024-01-28T20:38:04.874Z,27.22
2024-01-28T20:41:07.058Z,28.40
2024-01-28T20:44:08.896Z,35.52
2024-01-28T20:47:16.833Z,31.57
2024-01-28T20:50:19.311Z,33.91
2024-01-28T20:53:21.174Z,37.04
2024-01-28T20:56:24.132Z,35.44
2024-01-28T20:59:25.949Z,36.22
2024-01-28T21:02:27.710Z,37.23
2024-01-28T21:05:29.669Z,36.23
2024-01-28T21:08:31.594Z,36.61
2024-01-28T21:11:33.381Z,34.56
2024-01-28T21:14:36.066Z,34.13
2024-01-28T21:17:38.541Z,33.34
2024-01-28T21:20:41.027Z,33.98
2024-01-28T21:23:42.940Z,34.73
2024-01-28T21:26:44.813Z,32.98
2024-01-28T21:29:46.699Z,32.56
2024-01-28T21:32:48.854Z,32.41
2024-01-28T21:35:50.640Z,36.17
2024-01-28T21:38:52.452Z,33.98
2024-01-28T21:41:55.613Z,32.94
2024-01-28T21:44:59.893Z,34.49
2024-01-28T21:48:02.271Z,36.03
2024-01-28T21:51:04.380Z,34.71
2024-01-28T21:54:06.212Z,34.40
2024-01-28T21:57:08.001Z,34.58
2024-01-28T22:00:10.417Z,35.25
2024-01-28T22:03:12.295Z,32.83
2024-01-28T22:06:14.120Z,33.86
2024-01-28T22:09:15.866Z,32.82
2024-01-28T22:12:17.696Z,35.06
2024-01-28T22:15:19.659Z,34.23
2024-01-28T22:18:21.752Z,33.86
2024-01-28T22:21:24.641Z,34.04
2024-01-28T22:24:26.898Z,33.78
2024-01-28T22:27:28.816Z,33.98
2024-01-28T22:30:31.397Z,34.87
2024-01-28T22:33:33.582Z,34.50
2024-01-28T22:36:35.651Z,34.18
2024-01-28T22:39:37.522Z,34.74
2024-01-28T22:42:40.140Z,35.39
2024-01-28T22:45:42.011Z,35.56
2024-01-28T22:48:43.997Z,34.45
2024-01-28T22:51:45.992Z,35.46
2024-01-28T22:54:47.932Z,34.82
2024-01-28T22:57:49.808Z,34.33
2024-01-28T23:00:52.695Z,33.77
2024-01-28T23:03:54.740Z,34.75
2024-01-28T23:06:56.713Z,35.73
2024-01-28T23:09:58.611Z,36.67
2024-01-28T23:13:06.365Z,36.65
2024-01-28T23:16:09.188Z,35.61
2024-01-28T23:19:11.387Z,35.72
2024-01-28T23:22:13.208Z,35.08
2024-01-28T23:25:15.346Z,34.79
2024-01-28T23:28:20.589Z,36.29
2024-01-28T23:31:22.365Z,34.94
2024-01-28T23:34:24.224Z,34.97
2024-01-28T23:37:26.504Z,32.73
2024-01-28T23:40:28.461Z,31.63
2024-01-28T23:43:30.380Z,31.69
2024-01-28T23:46:32.188Z,32.65
2024-01-28T23:49:34.249Z,32.47
2024-01-28T23:52:36.638Z,31.94
2024-01-28T23:55:38.437Z,31.92
2024-01-28T23:58:40.186Z,31.36
